createdAt,value
2018-12-24T00:03:24.865Z,97.10
2018-12-24T00:06:07.057Z,97.10
2018-12-24T00:08:49.184Z,97.00
2018-12-24T00:11:31.765Z,96.90
2018-12-24T00:14:13.609Z,97.40
2018-12-24T00:16:57.561Z,97.20
2018-12-24T00:19:42.387Z,97.20
2018-12-24T00:22:24.629Z,97.30
2018-12-24T00:25:06.634Z,97.30
2018-12-24T00:27:48.424Z,97.30
2018-12-24T00:30:30.696Z,97.20
2018-12-24T00:33:13.105Z,97.30
2018-12-24T00:35:55.270Z,97.30
2018-12-24T00:41:18.623Z,97.20
2018-12-24T00:44:00.739Z,97.00
2018-12-24T00:46:42.981Z,97.00
2018-12-24T00:49:25.524Z,97.00
2018-12-24T00:52:07.397Z,97.00
2018-12-24T00:54:51.517Z,97.10
2018-12-24T00:57:33.369Z,97.20
2018-12-24T01:00:17.919Z,97.20
2018-12-24T01:03:00.032Z,97.30
2018-12-24T01:05:42.890Z,97.40
2018-12-24T01:08:24.808Z,97.40
2018-12-24T01:11:08.756Z,97.60
2018-12-24T01:13:51.814Z,97.70
2018-12-24T01:16:36.094Z,97.90
2018-12-24T01:19:18.561Z,98.10
2018-12-24T01:22:00.655Z,98.30
2018-12-24T01:24:42.593Z,98.30
2018-12-24T01:27:24.409Z,98.40
2018-12-24T01:30:06.980Z,98.50
2018-12-24T01:32:48.760Z,98.50
2018-12-24T01:35:30.640Z,98.60
2018-12-24T01:38:13.228Z,98.60
2018-12-24T01:40:56.661Z,98.70
2018-12-24T01:43:38.913Z,98.70
2018-12-24T01:46:20.721Z,98.80
2018-12-24T01:49:03.393Z,98.90
2018-12-24T01:51:46.139Z,99.00
2018-12-24T01:54:28.422Z,99.10
2018-12-24T01:57:10.379Z,99.20
2018-12-24T01:59:52.704Z,99.20
2018-12-24T02:02:35.914Z,99.30
2018-12-24T02:05:19.939Z,99.30
2018-12-24T02:08:02.368Z,99.30
2018-12-24T02:10:44.284Z,99.30
2018-12-24T02:13:26.934Z,99.30
2018-12-24T02:16:08.746Z,99.20
2018-12-24T02:18:51.173Z,99.00
2018-12-24T02:21:34.957Z,98.90
2018-12-24T02:24:17.058Z,98.80
2018-12-24T02:26:59.073Z,98.70
2018-12-24T02:29:41.609Z,98.80
2018-12-24T02:32:24.017Z,98.90
2018-12-24T02:35:05.877Z,99.00
2018-12-24T02:37:48.519Z,99.00
2018-12-24T02:40:30.756Z,98.90
2018-12-24T02:43:12.718Z,98.90
2018-12-24T02:45:55.255Z,99.20
2018-12-24T02:48:37.178Z,99.30
2018-12-24T02:51:19.490Z,99.40
2018-12-24T02:54:01.706Z,99.40
2018-12-24T02:56:43.894Z,99.50
2018-12-24T02:59:28.671Z,99.50
2018-12-24T03:02:10.502Z,99.40
2018-12-24T03:04:52.217Z,99.40
2018-12-24T03:07:34.912Z,99.40
2018-12-24T03:10:17.566Z,99.30
2018-12-24T03:13:02.760Z,99.40
2018-12-24T03:15:46.000Z,99.30
2018-12-24T03:18:28.641Z,99.30
2018-12-24T03:23:52.556Z,99.20
2018-12-24T03:26:38.267Z,99.20
2018-12-24T03:29:20.675Z,99.20
2018-12-24T03:32:04.438Z,99.10
2018-12-24T03:34:46.484Z,99.10
2018-12-24T03:37:28.834Z,99.00
2018-12-24T03:40:11.181Z,98.90
2018-12-24T03:42:53.011Z,98.90
2018-12-24T03:45:35.670Z,98.80
2018-12-24T03:48:18.145Z,98.80
2018-12-24T03:50:59.815Z,98.80
2018-12-24T03:53:41.725Z,98.70
2018-12-24T03:56:23.825Z,98.60
2018-12-24T03:59:06.441Z,98.60
2018-12-24T04:01:48.840Z,98.50
2018-12-24T04:04:31.343Z,98.50
2018-12-24T04:07:13.961Z,98.50
2018-12-24T04:09:56.556Z,98.50
2018-12-24T04:12:39.125Z,98.50
2018-12-24T04:15:21.455Z,98.40
2018-12-24T04:18:06.013Z,98.40
2018-12-24T04:20:47.896Z,98.40
2018-12-24T04:23:30.639Z,98.30
2018-12-24T04:26:12.926Z,98.30
2018-12-24T04:28:55.794Z,98.30
2018-12-24T04:31:39.607Z,98.30
2018-12-24T04:34:22.288Z,98.30
2018-12-24T04:39:45.984Z,98.30
2018-12-24T04:42:28.629Z,98.30
2018-12-24T04:45:11.302Z,98.30
2018-12-24T04:47:55.287Z,98.40
2018-12-24T04:50:39.916Z,98.40
2018-12-24T04:53:22.829Z,98.40
2018-12-24T04:56:04.553Z,98.30
2018-12-24T04:58:48.849Z,98.00
2018-12-24T05:01:32.681Z,97.60
2018-12-24T05:04:14.522Z,97.00
2018-12-24T05:06:56.579Z,96.60
2018-12-24T05:09:39.245Z,96.40
2018-12-24T05:12:21.972Z,96.30
2018-12-24T05:15:05.669Z,96.30
2018-12-24T05:17:48.045Z,96.30
2018-12-24T05:20:29.918Z,96.20
2018-12-24T05:23:12.042Z,96.20
2018-12-24T05:25:55.889Z,96.20
2018-12-24T05:28:38.465Z,96.20
2018-12-24T05:31:22.251Z,96.30
2018-12-24T05:34:06.484Z,96.30
2018-12-24T05:36:48.646Z,96.10
2018-12-24T05:39:31.213Z,96.00
2018-12-24T05:44:55.624Z,95.50
2018-12-24T05:47:40.258Z,95.20
2018-12-24T05:50:22.391Z,94.70
2018-12-24T05:53:04.989Z,94.40
2018-12-24T05:55:46.934Z,94.40
2018-12-24T05:58:29.474Z,94.30
2018-12-24T06:01:11.204Z,94.20
2018-12-24T06:03:53.081Z,94.10
2018-12-24T06:06:35.729Z,94.00
2018-12-24T06:09:17.905Z,94.00
2018-12-24T06:12:00.595Z,93.90
2018-12-24T06:14:44.015Z,94.10
2018-12-24T06:17:26.088Z,94.00
2018-12-24T06:20:08.067Z,93.90
2018-12-24T06:22:50.222Z,93.90
2018-12-24T06:25:32.008Z,93.80
2018-12-24T06:28:13.906Z,93.80
2018-12-24T06:30:56.444Z,93.90
2018-12-24T06:33:39.597Z,93.90
2018-12-24T06:36:23.387Z,93.90
2018-12-24T06:39:05.936Z,93.90
2018-12-24T06:41:48.546Z,93.80
2018-12-24T06:44:33.169Z,93.90
2018-12-24T06:47:15.411Z,94.00
2018-12-24T06:49:58.150Z,93.90
2018-12-24T06:52:42.463Z,93.90
2018-12-24T06:55:24.503Z,94.00
2018-12-24T06:58:06.552Z,94.30
2018-12-24T07:00:48.869Z,93.90
2018-12-24T07:03:31.296Z,93.90
2018-12-24T07:06:13.945Z,93.80
2018-12-24T07:08:55.745Z,93.80
2018-12-24T07:11:38.309Z,93.70
2018-12-24T07:14:20.879Z,93.70
2018-12-24T07:17:03.556Z,93.80
2018-12-24T07:19:45.471Z,93.80
2018-12-24T07:22:27.901Z,93.80
2018-12-24T07:25:10.444Z,93.90
2018-12-24T07:27:53.033Z,93.90
2018-12-24T07:30:35.538Z,94.00
2018-12-24T07:33:18.343Z,94.00
2018-12-24T07:36:00.352Z,93.90
2018-12-24T07:38:42.942Z,93.80
2018-12-24T07:41:24.816Z,93.80
2018-12-24T07:44:08.024Z,93.70
2018-12-24T07:46:52.184Z,93.90
2018-12-24T07:49:34.345Z,93.90
2018-12-24T07:52:16.985Z,94.10
2018-12-24T07:54:59.390Z,94.10
2018-12-24T07:57:41.777Z,94.10
2018-12-24T08:00:24.530Z,94.30
2018-12-24T08:03:06.311Z,94.30
2018-12-24T08:05:48.688Z,94.30
2018-12-24T08:08:31.257Z,94.20
2018-12-24T08:11:14.579Z,94.10
2018-12-24T08:13:57.127Z,94.10
2018-12-24T08:16:38.861Z,94.10
2018-12-24T08:19:21.494Z,94.00
2018-12-24T08:22:04.802Z,94.10
2018-12-24T08:24:48.302Z,94.20
2018-12-24T08:27:30.308Z,94.20
2018-12-24T08:30:12.075Z,94.30
2018-12-24T08:32:54.038Z,94.40
2018-12-24T08:35:36.702Z,94.30
2018-12-24T08:38:18.945Z,94.60
2018-12-24T08:41:03.665Z,94.10
2018-12-24T08:43:46.188Z,93.80
2018-12-24T08:46:29.879Z,93.50
2018-12-24T08:49:12.716Z,93.30
2018-12-24T08:51:55.363Z,93.10
2018-12-24T08:54:38.658Z,93.00
2018-12-24T08:57:20.469Z,93.10
2018-12-24T09:00:03.630Z,93.10
2018-12-24T09:02:48.605Z,93.10
2018-12-24T09:05:31.004Z,93.10
2018-12-24T09:08:13.442Z,93.20
2018-12-24T09:10:55.220Z,93.30
2018-12-24T09:13:37.746Z,93.30
2018-12-24T09:16:20.355Z,93.30
2018-12-24T09:19:02.099Z,93.20
2018-12-24T09:21:44.055Z,93.00
2018-12-24T09:24:25.957Z,93.00
2018-12-24T09:27:08.975Z,93.00
2018-12-24T09:29:53.306Z,92.90
2018-12-24T09:32:36.571Z,93.00
2018-12-24T09:35:19.100Z,93.10
2018-12-24T09:38:01.484Z,93.00
2018-12-24T09:40:45.410Z,93.00
2018-12-24T09:43:29.388Z,93.00
2018-12-24T09:46:11.110Z,93.10
2018-12-24T09:48:53.462Z,93.10
2018-12-24T09:51:36.209Z,93.20
2018-12-24T09:54:17.920Z,93.10
2018-12-24T09:57:01.743Z,93.00
2018-12-24T09:59:43.855Z,92.80
2018-12-24T10:02:25.645Z,92.50
2018-12-24T10:05:08.134Z,92.50
2018-12-24T10:07:50.662Z,92.40
2018-12-24T10:10:33.149Z,92.40
2018-12-24T10:13:19.079Z,92.40
2018-12-24T10:16:01.138Z,92.30
2018-12-24T10:18:43.720Z,91.90
2018-12-24T10:21:26.474Z,91.60
2018-12-24T10:24:10.949Z,91.60
2018-12-24T10:26:53.685Z,91.50
2018-12-24T10:29:38.245Z,90.50
2018-12-24T10:32:20.823Z,86.00
2018-12-24T10:37:44.893Z,82.90
2018-12-24T10:40:28.763Z,83.90
2018-12-24T10:43:13.354Z,84.80
2018-12-24T10:45:55.117Z,85.70
2018-12-24T10:48:37.933Z,88.70
2018-12-24T10:51:21.727Z,86.70
2018-12-24T10:54:03.737Z,86.80
2018-12-24T10:56:46.402Z,85.20
2018-12-24T10:59:28.692Z,84.50
2018-12-24T11:02:10.816Z,84.10
2018-12-24T11:04:53.682Z,84.20
2018-12-24T11:07:36.185Z,84.20
2018-12-24T11:10:20.775Z,84.70
2018-12-24T11:13:04.884Z,85.50
2018-12-24T11:15:47.151Z,86.00
2018-12-24T11:18:29.684Z,86.80
2018-12-24T11:21:12.089Z,86.80
2018-12-24T11:23:54.267Z,86.80
2018-12-24T11:26:36.036Z,86.90
2018-12-24T11:29:19.362Z,87.10
2018-12-24T11:32:01.428Z,86.90
2018-12-24T11:34:43.410Z,86.80
2018-12-24T11:37:26.049Z,86.70
2018-12-24T11:40:08.046Z,86.60
2018-12-24T11:42:50.866Z,86.50
2018-12-24T11:45:36.054Z,86.20
2018-12-24T11:48:18.247Z,85.90
2018-12-24T11:51:02.022Z,85.20
2018-12-24T11:53:43.922Z,84.40
2018-12-24T11:56:26.089Z,84.10
2018-12-24T11:59:08.851Z,84.00
2018-12-24T12:01:51.348Z,83.90
2018-12-24T12:04:34.765Z,83.60
2018-12-24T12:07:16.885Z,83.30
2018-12-24T12:09:58.748Z,83.00
2018-12-24T12:12:41.375Z,83.60
2018-12-24T12:15:24.930Z,83.60
2018-12-24T12:18:07.250Z,84.20
2018-12-24T12:20:52.598Z,83.90
2018-12-24T12:23:34.524Z,83.50
2018-12-24T12:26:16.670Z,82.10
2018-12-24T12:28:59.219Z,80.00
2018-12-24T12:31:41.455Z,60.90
2018-12-24T12:34:25.517Z,50.80
2018-12-24T12:37:08.230Z,38.90
2018-12-24T12:39:52.274Z,35.40
2018-12-24T12:42:34.987Z,34.20
2018-12-24T12:45:17.484Z,35.20
2018-12-24T12:48:00.462Z,37.60
2018-12-24T12:50:44.451Z,39.50
2018-12-24T12:53:26.919Z,38.10
2018-12-24T12:56:09.470Z,35.10
2018-12-24T12:58:52.613Z,36.30
2018-12-24T13:01:36.541Z,38.00
2018-12-24T13:04:19.676Z,40.10
2018-12-24T13:07:02.266Z,43.30
2018-12-24T13:09:44.982Z,45.40
2018-12-24T13:12:29.779Z,47.20
2018-12-24T13:15:12.228Z,48.50
2018-12-24T13:17:54.435Z,49.40
2018-12-24T13:20:36.334Z,50.10
2018-12-24T13:23:18.720Z,50.40
2018-12-24T13:26:01.310Z,51.00
2018-12-24T13:28:43.151Z,51.50
2018-12-24T13:31:25.403Z,51.90
2018-12-24T13:34:09.288Z,52.40
2018-12-24T13:36:51.091Z,52.40
2018-12-24T13:39:33.704Z,53.00
2018-12-24T13:42:15.731Z,53.80
2018-12-24T13:44:58.377Z,62.10
2018-12-24T13:47:41.017Z,57.30
2018-12-24T13:53:05.101Z,57.10
2018-12-24T13:55:50.982Z,57.90
2018-12-24T13:58:33.574Z,58.70
2018-12-24T14:01:17.565Z,59.60
2018-12-24T14:04:01.376Z,62.80
2018-12-24T14:06:47.041Z,63.60
2018-12-24T14:09:29.248Z,61.70
2018-12-24T14:12:10.982Z,62.40
2018-12-24T14:14:52.737Z,63.70
2018-12-24T14:18:16.709Z,64.60
2018-12-24T14:20:58.619Z,65.50
2018-12-24T14:23:42.473Z,65.90
2018-12-24T14:26:24.356Z,66.70
2018-12-24T14:29:06.353Z,77.00
2018-12-24T14:31:48.686Z,73.60
2018-12-24T14:34:30.838Z,73.00
2018-12-24T14:37:14.009Z,79.20
2018-12-24T14:39:57.829Z,67.60
2018-12-24T14:42:39.929Z,67.90
2018-12-24T14:45:24.042Z,67.60
2018-12-24T14:48:08.201Z,66.80
2018-12-24T14:50:52.272Z,66.50
2018-12-24T14:53:36.517Z,66.50
2018-12-24T14:56:18.427Z,66.70
2018-12-24T14:59:01.539Z,66.30
2018-12-24T15:01:43.409Z,66.50
2018-12-24T15:04:25.421Z,66.40
2018-12-24T15:07:09.754Z,66.80
2018-12-24T15:09:51.957Z,67.00
2018-12-24T15:12:33.874Z,67.70
2018-12-24T15:15:15.788Z,67.90
2018-12-24T15:17:57.652Z,67.80
2018-12-24T15:20:40.508Z,68.30
2018-12-24T15:23:22.345Z,68.70
2018-12-24T15:26:04.432Z,69.30
2018-12-24T15:28:46.145Z,69.80
2018-12-24T15:31:28.197Z,70.00
2018-12-24T15:34:11.933Z,70.30
2018-12-24T15:36:56.154Z,70.70
2018-12-24T15:39:37.948Z,71.30
2018-12-24T15:42:20.710Z,71.70
2018-12-24T15:45:02.764Z,72.10
2018-12-24T15:47:44.728Z,72.40
2018-12-24T15:50:26.865Z,73.00
2018-12-24T15:53:08.857Z,73.20
2018-12-24T15:55:51.368Z,73.40
2018-12-24T15:58:34.114Z,73.70
2018-12-24T16:04:06.670Z,74.40
2018-12-24T16:06:50.629Z,75.00
2018-12-24T16:09:34.436Z,75.70
2018-12-24T16:12:18.266Z,75.70
2018-12-24T16:14:59.931Z,76.30
2018-12-24T16:17:42.233Z,76.60
2018-12-24T16:20:24.092Z,76.70
2018-12-24T16:23:05.962Z,76.80
2018-12-24T16:25:48.009Z,76.90
2018-12-24T16:28:30.048Z,77.10
2018-12-24T16:31:12.213Z,77.40
2018-12-24T16:33:54.068Z,77.40
2018-12-24T16:36:35.797Z,77.60
2018-12-24T16:39:19.717Z,77.90
2018-12-24T16:42:03.659Z,78.30
2018-12-24T16:44:46.064Z,78.80
2018-12-24T16:47:28.792Z,78.70
2018-12-24T16:50:10.531Z,78.70
2018-12-24T16:52:52.324Z,78.80
2018-12-24T16:55:34.790Z,78.70
2018-12-24T16:58:16.773Z,78.50
2018-12-24T17:00:58.771Z,78.30
2018-12-24T17:03:40.778Z,78.00
2018-12-24T17:06:24.890Z,77.90
2018-12-24T17:09:07.141Z,77.80
2018-12-24T17:11:49.217Z,77.90
2018-12-24T17:14:31.477Z,78.20
2018-12-24T17:17:15.778Z,79.10
2018-12-24T17:19:59.744Z,78.60
2018-12-24T17:22:41.705Z,79.00
2018-12-24T17:25:24.751Z,79.30
2018-12-24T17:28:09.171Z,79.30
2018-12-24T17:30:51.354Z,79.70
2018-12-24T17:33:33.588Z,79.90
2018-12-24T17:36:16.016Z,80.10
2018-12-24T17:38:59.874Z,80.20
2018-12-24T17:41:43.652Z,80.20
2018-12-24T17:44:25.444Z,80.20
2018-12-24T17:47:07.007Z,80.30
2018-12-24T17:49:48.849Z,80.30
2018-12-24T17:52:30.794Z,80.20
2018-12-24T17:55:12.881Z,80.20
2018-12-24T17:57:54.830Z,80.10
2018-12-24T18:00:36.690Z,80.40
2018-12-24T18:03:18.684Z,80.80
2018-12-24T18:06:02.684Z,81.10
2018-12-24T18:08:46.908Z,81.60
2018-12-24T18:11:28.889Z,82.00
2018-12-24T18:14:11.761Z,82.20
2018-12-24T18:16:53.649Z,82.50
2018-12-24T18:19:36.298Z,82.90
2018-12-24T18:22:18.330Z,83.00
2018-12-24T18:25:00.326Z,83.10
2018-12-24T18:27:42.430Z,83.00
2018-12-24T18:30:24.059Z,83.00
2018-12-24T18:33:07.772Z,83.00
2018-12-24T18:35:49.595Z,83.10
2018-12-24T18:38:31.648Z,83.00
2018-12-24T18:41:13.421Z,83.00
2018-12-24T18:43:55.472Z,83.00
2018-12-24T18:46:37.282Z,83.20
2018-12-24T18:49:19.119Z,83.50
2018-12-24T18:52:01.250Z,83.70
2018-12-24T18:54:45.067Z,83.60
2018-12-24T18:57:26.890Z,83.40
2018-12-24T19:00:08.986Z,83.10
2018-12-24T19:02:51.244Z,82.90
2018-12-24T19:05:33.069Z,82.40
2018-12-24T19:08:15.190Z,81.70
2018-12-24T19:10:59.134Z,81.20
2018-12-24T19:13:40.878Z,80.90
2018-12-24T19:16:24.817Z,80.70
2018-12-24T19:19:08.755Z,80.40
2018-12-24T19:21:50.782Z,80.30
2018-12-24T19:24:33.730Z,80.20
2018-12-24T19:27:15.243Z,79.90
2018-12-24T19:29:57.177Z,79.80
2018-12-24T19:32:39.062Z,80.30
2018-12-24T19:35:22.323Z,79.40
2018-12-24T19:38:04.245Z,79.30
2018-12-24T19:40:47.249Z,79.10
2018-12-24T19:43:31.227Z,78.50
2018-12-24T19:46:14.522Z,77.40
2018-12-24T19:48:58.482Z,76.60
2018-12-24T19:51:42.604Z,76.20
2018-12-24T19:54:26.776Z,76.00
2018-12-24T19:57:08.592Z,75.90
2018-12-24T19:59:52.611Z,75.30
2018-12-24T20:02:36.461Z,74.70
2018-12-24T20:05:18.735Z,74.60
2018-12-24T20:08:01.247Z,74.30
2018-12-24T20:10:42.980Z,74.00
2018-12-24T20:13:25.364Z,73.80
2018-12-24T20:16:07.316Z,73.50
2018-12-24T20:18:49.010Z,73.00
2018-12-24T20:21:33.134Z,72.90
2018-12-24T20:24:15.064Z,72.70
2018-12-24T20:26:58.949Z,72.40
2018-12-24T20:29:43.040Z,72.40
2018-12-24T20:32:27.255Z,72.30
2018-12-24T20:35:11.144Z,72.20
2018-12-24T20:37:54.912Z,72.40
2018-12-24T20:40:37.184Z,72.60
2018-12-24T20:43:19.233Z,72.40
2018-12-24T20:46:01.346Z,72.30
2018-12-24T20:48:42.852Z,72.30
2018-12-24T20:51:24.742Z,72.30
2018-12-24T20:54:08.592Z,72.40
2018-12-24T20:56:50.621Z,72.40
2018-12-24T20:59:34.352Z,72.50
2018-12-24T21:02:16.057Z,72.50
2018-12-24T21:04:57.828Z,72.60
2018-12-24T21:07:40.614Z,72.60
2018-12-24T21:10:22.274Z,72.80
2018-12-24T21:13:04.446Z,72.90
2018-12-24T21:15:46.337Z,73.10
2018-12-24T21:18:28.237Z,73.20
2018-12-24T21:21:10.257Z,73.20
2018-12-24T21:23:53.131Z,73.40
2018-12-24T21:26:37.068Z,73.50
2018-12-24T21:29:21.113Z,73.90
2018-12-24T21:32:05.172Z,74.00
2018-12-24T21:34:49.017Z,74.30
2018-12-24T21:37:31.154Z,74.30
2018-12-24T21:40:13.782Z,74.50
2018-12-24T21:42:55.854Z,74.90
2018-12-24T21:45:37.805Z,75.30
2018-12-24T21:48:23.943Z,75.60
2018-12-24T21:51:06.985Z,76.10
2018-12-24T21:53:48.929Z,76.60
2018-12-24T21:56:31.589Z,76.50
2018-12-24T21:59:15.664Z,76.30
2018-12-24T22:01:59.710Z,75.90
2018-12-24T22:04:43.844Z,75.70
2018-12-24T22:07:27.734Z,75.30
2018-12-24T22:10:11.721Z,75.20
2018-12-24T22:12:57.389Z,75.40
2018-12-24T22:15:39.563Z,75.30
2018-12-24T22:18:21.785Z,75.40
2018-12-24T22:21:03.801Z,75.20
2018-12-24T22:23:45.761Z,75.20
2018-12-24T22:26:27.749Z,75.40
2018-12-24T22:29:09.780Z,75.70
2018-12-24T22:31:51.758Z,75.80
2018-12-24T22:34:33.776Z,76.00
2018-12-24T22:37:15.830Z,76.20
2018-12-24T22:39:57.487Z,75.50
2018-12-24T22:42:41.387Z,73.70
2018-12-24T22:45:25.362Z,73.00
2018-12-24T22:48:07.016Z,72.70
2018-12-24T22:50:48.726Z,72.90
2018-12-24T22:53:32.909Z,71.50
2018-12-24T22:56:14.882Z,70.20
2018-12-24T22:58:59.068Z,69.30
2018-12-24T23:01:41.208Z,69.10
2018-12-24T23:04:23.222Z,68.90
2018-12-24T23:07:05.359Z,68.70
2018-12-24T23:09:47.273Z,68.70
2018-12-24T23:12:30.113Z,68.70
2018-12-24T23:15:14.301Z,68.80
2018-12-24T23:17:56.149Z,68.90
2018-12-24T23:20:39.926Z,68.90
2018-12-24T23:23:23.750Z,69.40
2018-12-24T23:26:05.824Z,69.60
2018-12-24T23:28:48.256Z,69.40
2018-12-24T23:31:32.343Z,69.00
2018-12-24T23:34:14.820Z,68.90
2018-12-24T23:36:56.681Z,69.00
2018-12-24T23:39:38.903Z,69.00
2018-12-24T23:42:20.752Z,68.70
2018-12-24T23:45:02.553Z,68.80
2018-12-24T23:47:44.556Z,68.80
2018-12-24T23:50:27.236Z,68.90
2018-12-24T23:53:09.610Z,69.30
2018-12-24T23:55:52.343Z,69.80
2018-12-24T23:58:34.372Z,69.90
